Time;durP1;ratioP1;P1;durP2;ratioP2;P2;SDS_P1;SDS_P2;PMS_P1;PMS_P2;Temp;Humidity;BMP_temperature;BMP_pressure;BME280_temperature;BME280_humidity;BME280_pressure;Samples;Min_cycle;Max_cycle;Signal;HPM_P1;HPM_P2
2023/06/26 00:02:09;;;;;;;9.32;5.63;;;18.40;1.00;;;;;;10398259;28;20247;-77
2023/06/26 00:07:33;;;;;;;7.57;4.85;;;18.40;1.00;;;;;;10399780;28;20517;-77
2023/06/26 00:12:55;;;;;;;7.53;5.20;;;18.40;1.00;;;;;;10398219;28;20221;-77
2023/06/26 00:18:16;;;;;;;6.68;5.03;;;18.30;1.00;;;;;;10384210;28;20287;-78
2023/06/26 00:23:38;;;;;;;6.38;4.82;;;18.20;1.00;;;;;;10387392;28;20205;-76
2023/06/26 00:29:00;;;;;;;6.82;5.07;;;18.20;99.90;;;;;;10365296;28;20197;-77
2023/06/26 00:34:22;;;;;;;8.75;4.65;;;18.00;1.00;;;;;;10398448;28;20235;-77
2023/06/26 00:39:43;;;;;;;6.22;5.10;;;17.90;1.00;;;;;;10398550;28;20215;-77
2023/06/26 00:45:05;;;;;;;6.50;5.25;;;17.90;59.20;;;;;;10379121;28;20377;-77
2023/06/26 00:50:27;;;;;;;5.90;5.05;;;17.80;40.50;;;;;;10397694;28;20236;-78
2023/06/26 00:55:48;;;;;;;7.10;5.88;;;17.90;99.90;;;;;;10397762;28;20212;-77
2023/06/26 01:01:15;;;;;;;5.80;5.00;;;17.80;99.90;;;;;;10382544;28;20292;-77
2023/06/26 01:06:37;;;;;;;7.55;5.32;;;17.80;99.90;;;;;;10391873;28;20197;-77
2023/06/26 01:11:59;;;;;;;7.32;5.28;;;17.70;99.90;;;;;;10376770;28;20236;-77
2023/06/26 01:17:20;;;;;;;7.53;5.47;;;17.60;1.00;;;;;;10370620;28;20197;-78
2023/06/26 01:22:44;;;;;;;11.55;5.53;;;17.60;99.90;;;;;;10381658;28;20284;-78
2023/06/26 01:28:06;;;;;;;9.90;5.82;;;17.30;99.90;;;;;;10396133;28;20205;-76
2023/06/26 01:33:28;;;;;;;11.50;6.75;;;17.20;99.90;;;;;;10395183;28;20296;-77
2023/06/26 01:38:50;;;;;;;10.88;6.53;;;17.10;99.90;;;;;;10386020;28;20261;-77
2023/06/26 01:44:25;;;;;;;11.68;7.05;;;17.00;99.90;;;;;;10384860;28;20488;-78
2023/06/26 01:50:24;;;;;;;12.77;7.40;;;16.90;1.00;;;;;;10390518;28;20594;-77
2023/06/26 01:55:48;;;;;;;10.43;6.05;;;16.90;99.90;;;;;;10281978;28;20480;-77
2023/06/26 02:01:10;;;;;;;7.95;5.53;;;16.70;1.00;;;;;;10323464;28;20221;-77
2023/06/26 02:06:31;;;;;;;10.70;6.85;;;16.60;1.00;;;;;;10322273;28;20264;-77
2023/06/26 02:11:52;;;;;;;9.93;6.53;;;16.60;1.00;;;;;;10337985;28;20237;-78
2023/06/26 02:17:14;;;;;;;9.02;6.85;;;16.70;1.00;;;;;;10337312;28;20225;-78
2023/06/26 02:22:35;;;;;;;10.38;7.70;;;16.60;99.90;;;;;;10351176;28;20281;-79
2023/06/26 02:27:57;;;;;;;9.18;6.97;;;16.70;1.00;;;;;;10339450;28;20269;-79
2023/06/26 02:33:18;;;;;;;10.60;7.47;;;16.80;1.00;;;;;;10343652;28;20263;-79
2023/06/26 02:38:42;;;;;;;9.77;7.13;;;16.70;37.50;;;;;;10353897;28;20193;-78
2023/06/26 02:44:04;;;;;;;10.80;7.68;;;16.60;99.90;;;;;;10357562;28;20500;-78
2023/06/26 02:49:26;;;;;;;8.90;6.15;;;16.60;99.90;;;;;;10339409;28;20214;-79
2023/06/26 02:54:47;;;;;;;8.23;7.13;;;16.60;1.00;;;;;;10362431;28;20515;-78
2023/06/26 03:00:11;;;;;;;9.40;7.53;;;16.50;99.90;;;;;;10382151;28;20201;-76
2023/06/26 03:05:39;;;;;;;12.32;8.40;;;16.70;1.00;;;;;;10353481;28;20483;-78
2023/06/26 03:11:01;;;;;;;13.38;7.78;;;16.70;1.00;;;;;;10366737;28;20193;-76
2023/06/26 03:16:22;;;;;;;11.80;7.80;;;16.70;1.00;;;;;;10362219;28;20276;-78
2023/06/26 03:21:43;;;;;;;11.60;7.90;;;16.80;1.00;;;;;;10368191;28;20203;-76
2023/06/26 03:27:05;;;;;;;14.68;9.93;;;16.90;1.00;;;;;;10390001;28;20190;-76
2023/06/26 03:32:27;;;;;;;14.40;9.50;;;16.90;25.80;;;;;;10380950;28;20228;-78
2023/06/26 03:37:49;;;;;;;11.85;7.93;;;17.00;4.70;;;;;;10358695;28;20200;-78
2023/06/26 03:43:10;;;;;;;11.85;7.63;;;16.90;1.00;;;;;;10359715;28;20217;-76
2023/06/26 03:48:40;;;;;;;14.10;8.30;;;17.00;99.90;;;;;;10360013;28;20196;-77
2023/06/26 03:54:02;;;;;;;12.48;8.40;;;17.20;15.80;;;;;;10359246;28;20232;-77
2023/06/26 03:59:23;;;;;;;9.82;7.95;;;17.20;99.90;;;;;;10360030;28;20205;-79
2023/06/26 04:04:45;;;;;;;12.98;7.45;;;17.20;1.00;;;;;;10372784;28;20237;-77
2023/06/26 04:10:07;;;;;;;10.15;7.05;;;17.30;1.00;;;;;;10378989;28;20238;-77
2023/06/26 04:15:29;;;;;;;11.43;6.97;;;17.40;38.20;;;;;;10363232;28;20221;-77
2023/06/26 04:21:11;;;;;;;7.43;6.10;;;17.50;99.90;;;;;;10366280;28;20200;-78
2023/06/26 04:26:33;;;;;;;7.70;5.82;;;17.80;1.00;;;;;;10392571;28;20305;-77
2023/06/26 04:32:00;;;;;;;7.82;6.00;;;17.90;53.20;;;;;;10358050;28;20284;-77
2023/06/26 04:37:22;;;;;;;6.75;5.78;;;18.10;1.00;;;;;;10358775;28;20194;-78
2023/06/26 04:42:43;;;;;;;6.72;4.82;;;18.20;1.00;;;;;;10357456;28;20481;-77
2023/06/26 04:48:05;;;;;;;6.28;5.63;;;18.40;99.90;;;;;;10394797;28;20205;-77
2023/06/26 04:53:27;;;;;;;7.68;5.43;;;18.50;99.90;;;;;;10397682;28;20539;-78
2023/06/26 04:58:48;;;;;;;11.55;6.43;;;18.60;1.00;;;;;;10369213;28;20463;-78
2023/06/26 05:04:09;;;;;;;7.32;6.40;;;18.70;1.00;;;;;;10342729;28;20241;-78
2023/06/26 05:09:31;;;;;;;7.57;5.95;;;18.80;1.00;;;;;;10358888;28;20244;-78
2023/06/26 05:14:51;;;;;;;7.95;5.80;;;18.90;1.00;;;;;;10370785;28;20225;-80
2023/06/26 05:20:13;;;;;;;6.70;5.68;;;19.00;1.00;;;;;;10358726;28;20558;-78
2023/06/26 05:25:35;;;;;;;9.25;5.82;;;19.20;99.90;;;;;;10388724;28;20428;-80
2023/06/26 05:30:58;;;;;;;8.52;5.57;;;19.30;99.90;;;;;;10341794;28;20223;-79
2023/06/26 05:36:21;;;;;;;6.22;5.10;;;19.50;99.90;;;;;;10328241;28;20226;-79
2023/06/26 05:41:46;;;;;;;9.85;5.45;;;19.70;22.00;;;;;;10354842;28;20194;-79
2023/06/26 05:47:07;;;;;;;6.45;5.00;;;19.90;8.90;;;;;;10385326;28;20255;-79
2023/06/26 05:52:29;;;;;;;6.50;5.22;;;20.10;1.00;;;;;;10396240;28;20287;-80
2023/06/26 05:57:51;;;;;;;7.50;4.03;;;20.20;1.00;;;;;;10363290;28;20519;-78
2023/06/26 06:03:12;;;;;;;4.30;3.67;;;20.40;1.00;;;;;;10355266;28;20230;-79
2023/06/26 06:08:34;;;;;;;4.13;3.30;;;20.70;1.00;;;;;;10355623;28;20447;-78
2023/06/26 06:13:55;;;;;;;3.10;2.70;;;20.90;1.00;;;;;;10392082;28;20217;-78
2023/06/26 06:19:17;;;;;;;6.00;2.50;;;21.00;1.00;;;;;;10395771;28;20268;-78
2023/06/26 06:24:38;;;;;;;4.65;2.67;;;21.20;1.00;;;;;;10384515;28;20292;-78
2023/06/26 06:29:59;;;;;;;4.25;2.63;;;21.40;99.90;;;;;;10354716;28;20197;-79
2023/06/26 06:35:21;;;;;;;4.15;2.35;;;21.70;99.90;;;;;;10367481;28;20225;-79
2023/06/26 06:40:43;;;;;;;4.32;1.98;;;22.00;99.90;;;;;;10354301;28;20273;-80
2023/06/26 06:46:05;;;;;;;4.45;2.65;;;22.50;99.90;;;;;;10375110;28;20509;-79
2023/06/26 06:51:26;;;;;;;5.43;2.70;;;23.00;99.90;;;;;;10393638;28;20240;-79
2023/06/26 06:56:47;;;;;;;7.63;3.35;;;23.60;99.90;;;;;;10362804;28;20225;-77
2023/06/26 07:02:08;;;;;;;33.72;5.00;;;24.30;99.90;;;;;;10352837;28;20237;-78
2023/06/26 07:07:32;;;;;;;5.32;3.08;;;24.90;99.90;;;;;;10354276;28;20210;-78
2023/06/26 07:12:53;;;;;;;6.40;2.97;;;25.40;99.90;;;;;;10391162;28;20380;-79
2023/06/26 07:18:14;;;;;;;4.15;2.78;;;26.10;99.90;;;;;;10401434;28;20216;-79
2023/06/26 07:23:36;;;;;;;3.33;2.95;;;26.40;99.90;;;;;;10392654;28;20197;-79
2023/06/26 07:28:58;;;;;;;5.65;3.47;;;26.80;99.90;;;;;;10352864;28;20221;-79
2023/06/26 07:34:19;;;;;;;13.00;5.00;;;27.20;99.90;;;;;;10394564;28;20255;-77
2023/06/26 07:39:40;;;;;;;7.18;4.28;;;27.50;99.90;;;;;;10376796;28;20193;-79
2023/06/26 07:45:09;;;;;;;7.78;4.50;;;27.80;99.90;;;;;;10387693;28;20202;-81
2023/06/26 07:50:31;;;;;;;4.05;3.35;;;28.20;99.90;;;;;;10365166;28;20210;-82
2023/06/26 07:55:52;;;;;;;6.40;3.83;;;28.60;99.90;;;;;;10368021;28;20240;-78
2023/06/26 08:01:14;;;;;;;6.25;3.60;;;29.00;99.90;;;;;;10353676;28;20198;-78
2023/06/26 08:06:35;;;;;;;8.00;3.30;;;29.00;99.90;;;;;;10393720;28;20225;-79
2023/06/26 08:11:57;;;;;;;4.93;3.50;;;29.40;99.90;;;;;;10382095;28;20251;-78
2023/06/26 08:17:19;;;;;;;4.85;3.78;;;29.70;99.90;;;;;;10353399;28;20229;-79
2023/06/26 08:22:41;;;;;;;6.88;3.50;;;29.90;99.90;;;;;;10369743;28;20281;-79
2023/06/26 08:28:03;;;;;;;4.53;3.47;;;30.00;99.90;;;;;;10373331;28;20231;-79
2023/06/26 08:33:24;;;;;;;6.80;3.63;;;30.40;99.90;;;;;;10388073;28;20279;-79
2023/06/26 08:38:45;;;;;;;3.92;3.38;;;30.70;99.90;;;;;;10353712;28;20388;-79
2023/06/26 08:44:07;;;;;;;5.20;3.25;;;;;;;;;;10358118;28;20220;-79
2023/06/26 08:49:31;;;;;;;5.05;3.25;;;;;;;;;;10424972;28;20201;-79
2023/06/26 08:54:58;;;;;;;3.28;2.97;;;;;;;;;;10392053;28;20268;-79
2023/06/26 09:00:20;;;;;;;4.00;3.10;;;;;;;;;;10383616;28;20209;-81
2023/06/26 09:05:42;;;;;;;3.90;2.88;;;;;;;;;;10338595;28;20244;-83
2023/06/26 09:11:04;;;;;;;5.97;3.53;;;;;;;;;;10350954;28;20209;-80
2023/06/26 09:16:26;;;;;;;4.25;3.00;;;;;;;;;;10371240;28;20621;-79
2023/06/26 09:21:50;;;;;;;3.50;2.97;;;;;;;;;;10366329;28;20231;-81
2023/06/26 09:27:11;;;;;;;3.22;2.67;;;32.30;99.90;;;;;;10392737;28;20192;-79
2023/06/26 09:32:36;;;;;;;4.80;2.88;;;32.60;99.90;;;;;;10351597;28;20328;-80
2023/06/26 09:37:58;;;;;;;3.75;2.92;;;32.60;99.90;;;;;;10350518;28;20214;-79
2023/06/26 09:43:20;;;;;;;3.78;2.65;;;32.70;99.90;;;;;;10351614;28;20268;-78
2023/06/26 09:48:41;;;;;;;4.60;2.75;;;32.70;99.90;;;;;;10351887;28;20197;-81
2023/06/26 09:54:04;;;;;;;5.43;3.55;;;33.00;99.90;;;;;;10350177;28;20225;-80
2023/06/26 09:59:25;;;;;;;2.50;2.30;;;33.20;99.90;;;;;;10350633;28;20407;-78
2023/06/26 10:04:47;;;;;;;4.30;2.80;;;33.30;99.90;;;;;;10363768;28;20729;-81
2023/06/26 10:10:10;;;;;;;5.57;3.03;;;33.20;99.90;;;;;;10354929;28;20563;-80
2023/06/26 10:15:32;;;;;;;3.28;2.70;;;33.20;99.90;;;;;;10390364;28;20232;-81
2023/06/26 10:20:56;;;;;;;4.93;2.30;;;33.40;99.90;;;;;;10381790;28;20205;-82
2023/06/26 10:26:21;;;;;;;3.58;2.63;;;33.70;99.90;;;;;;10386962;28;20197;-80
2023/06/26 10:31:50;;;;;;;8.80;3.08;;;33.80;99.90;;;;;;10386714;28;20232;-81
2023/06/26 10:37:12;;;;;;;9.00;3.42;;;33.40;99.90;;;;;;10375687;28;20233;-79
2023/06/26 10:42:36;;;;;;;6.22;2.75;;;33.30;99.90;;;;;;10376726;28;20208;-79
2023/06/26 10:47:58;;;;;;;3.15;2.85;;;33.40;99.90;;;;;;10370736;28;20247;-80
2023/06/26 10:53:24;;;;;;;3.17;2.33;;;33.00;99.90;;;;;;10384665;28;20542;-80
2023/06/26 10:58:47;;;;;;;7.05;2.53;;;33.10;99.90;;;;;;10365221;28;20428;-79
2023/06/26 11:04:10;;;;;;;2.53;2.15;;;33.50;99.90;;;;;;10369439;28;20229;-80
2023/06/26 11:09:31;;;;;;;5.18;2.22;;;33.70;99.90;;;;;;10396643;28;20503;-80
2023/06/26 11:14:53;;;;;;;5.47;2.45;;;33.80;99.90;;;;;;10398811;28;20233;-80
2023/06/26 11:20:18;;;;;;;2.38;2.13;;;33.80;99.90;;;;;;10391455;28;20554;-80
2023/06/26 11:25:39;;;;;;;4.07;3.03;;;33.70;99.90;;;;;;10411220;28;20204;-80
2023/06/26 11:31:00;;;;;;;4.75;2.67;;;33.90;99.90;;;;;;10381759;28;20204;-80
2023/06/26 11:36:25;;;;;;;5.40;2.40;;;33.70;99.90;;;;;;10390951;28;20221;-81
2023/06/26 11:41:46;;;;;;;3.35;2.83;;;33.60;99.90;;;;;;10409574;28;20402;-81
2023/06/26 11:47:07;;;;;;;3.97;2.65;;;33.40;99.90;;;;;;10375986;28;20209;-79
2023/06/26 11:52:29;;;;;;;3.92;2.42;;;33.60;99.90;;;;;;10371643;28;20216;-81
2023/06/26 11:57:52;;;;;;;3.67;2.55;;;33.40;99.90;;;;;;10380915;28;20246;-79
2023/06/26 12:03:14;;;;;;;4.85;2.60;;;33.60;99.90;;;;;;10394903;28;20423;-86
2023/06/26 12:08:35;;;;;;;6.20;2.45;;;33.50;99.90;;;;;;10376593;28;20198;-81
2023/06/26 12:13:58;;;;;;;4.35;2.30;;;33.50;99.90;;;;;;10386702;28;20551;-81
2023/06/26 12:19:24;;;;;;;3.28;2.40;;;33.60;99.90;;;;;;10380283;28;20301;-82
2023/06/26 12:24:47;;;;;;;2.97;2.65;;;33.70;99.90;;;;;;10394209;28;20220;-82
2023/06/26 12:30:08;;;;;;;10.88;2.92;;;33.50;99.90;;;;;;10394208;28;20201;-88
2023/06/26 12:35:33;;;;;;;3.47;2.85;;;33.60;99.90;;;;;;10375685;28;20237;-85
2023/06/26 12:40:57;;;;;;;4.30;3.10;;;33.20;99.90;;;;;;10380935;28;20267;-83
2023/06/26 12:46:18;;;;;;;2.72;2.53;;;32.80;99.90;;;;;;10350624;28;20251;-84
2023/06/26 12:51:40;;;;;;;4.13;3.13;;;32.70;99.90;;;;;;10365557;28;20206;-88
2023/06/26 12:57:02;;;;;;;3.15;2.85;;;32.70;99.90;;;;;;10335277;28;20218;-81
2023/06/26 13:02:24;;;;;;;3.53;3.22;;;32.90;99.90;;;;;;10348079;28;20554;-83
2023/06/26 13:07:45;;;;;;;2.55;2.35;;;32.80;99.90;;;;;;10312408;28;20512;-87
2023/06/26 13:13:07;;;;;;;3.00;2.70;;;32.90;99.90;;;;;;10341544;28;20396;-80
2023/06/26 13:18:29;;;;;;;7.18;3.22;;;33.10;99.90;;;;;;10361857;28;20218;-81
2023/06/26 13:23:50;;;;;;;3.92;2.92;;;32.90;99.90;;;;;;10348592;28;20482;-84
2023/06/26 13:29:12;;;;;;;4.63;2.90;;;32.70;99.90;;;;;;10327032;28;20228;-77
2023/06/26 13:34:33;;;;;;;3.22;2.83;;;32.70;99.90;;;;;;10344204;28;20532;-82
2023/06/26 13:39:55;;;;;;;4.60;3.00;;;32.50;99.90;;;;;;10332720;28;20434;-84
2023/06/26 13:45:16;;;;;;;3.83;2.90;;;32.60;99.90;;;;;;10314830;28;20651;-84
2023/06/26 13:50:47;;;;;;;2.92;2.63;;;32.30;99.90;;;;;;10351986;28;20245;-83
2023/06/26 13:56:12;;;;;;;4.53;3.05;;;32.00;99.90;;;;;;10332468;28;20421;-82
2023/06/26 14:01:34;;;;;;;3.55;2.70;;;31.50;99.90;;;;;;10350631;28;20194;-79
2023/06/26 14:06:55;;;;;;;3.60;2.88;;;31.20;99.90;;;;;;10336389;28;20435;-81
2023/06/26 14:12:16;;;;;;;3.40;2.72;;;31.50;99.90;;;;;;10345720;28;20454;-83
2023/06/26 14:17:39;;;;;;;3.88;2.83;;;31.50;99.90;;;;;;10282168;28;20236;-80
2023/06/26 14:23:01;;;;;;;2.63;2.42;;;31.10;99.90;;;;;;10346946;28;20226;-79
2023/06/26 14:28:22;;;;;;;7.18;3.20;;;31.00;99.90;;;;;;10320335;28;20209;-83
2023/06/26 14:33:44;;;;;;;4.93;2.90;;;31.30;99.90;;;;;;10346992;28;20213;-79
2023/06/26 14:39:05;;;;;;;5.05;2.92;;;31.20;99.90;;;;;;10350473;28;20210;-79
2023/06/26 14:44:27;;;;;;;3.85;3.10;;;31.00;99.90;;;;;;10326008;28;20224;-81
2023/06/26 14:49:48;;;;;;;4.97;3.05;;;30.90;99.90;;;;;;10309647;28;20525;-85
2023/06/26 14:55:10;;;;;;;3.17;2.70;;;30.30;99.90;;;;;;10309439;28;20298;-85
2023/06/26 15:00:31;;;;;;;5.28;3.03;;;30.40;99.90;;;;;;10313648;28;20199;-79
2023/06/26 15:05:53;;;;;;;4.43;3.00;;;30.10;99.90;;;;;;10327813;28;20305;-78
2023/06/26 15:11:14;;;;;;;4.72;2.85;;;29.80;99.90;;;;;;10321219;28;20198;-78
2023/06/26 15:16:35;;;;;;;4.57;3.17;;;29.70;99.90;;;;;;10314098;28;20226;-78
2023/06/26 15:21:57;;;;;;;2.95;2.45;;;29.50;99.90;;;;;;10330479;28;20194;-80
2023/06/26 15:27:18;;;;;;;6.07;3.25;;;29.30;99.90;;;;;;10345551;28;20520;-78
2023/06/26 15:32:40;;;;;;;4.25;2.88;;;29.20;99.90;;;;;;10354983;28;20208;-80
2023/06/26 15:38:01;;;;;;;3.40;3.10;;;29.40;99.90;;;;;;10358888;28;20233;-77
2023/06/26 15:43:22;;;;;;;7.38;3.50;;;29.30;99.90;;;;;;10341481;28;20320;-78
2023/06/26 15:48:43;;;;;;;5.20;3.10;;;29.20;99.90;;;;;;10359968;28;20389;-78
2023/06/26 15:54:05;;;;;;;3.30;2.90;;;28.90;99.90;;;;;;10360669;28;20225;-77
2023/06/26 15:59:26;;;;;;;4.82;3.08;;;28.80;99.90;;;;;;10354894;28;20288;-79
2023/06/26 16:04:47;;;;;;;5.10;3.20;;;28.60;99.90;;;;;;10360285;28;20544;-77
2023/06/26 16:10:09;;;;;;;4.53;3.70;;;28.50;99.90;;;;;;10369213;28;20421;-78
2023/06/26 16:15:31;;;;;;;4.75;2.70;;;28.30;99.90;;;;;;10332459;28;20221;-79
2023/06/26 16:20:53;;;;;;;3.80;3.35;;;28.20;99.90;;;;;;10327425;28;20209;-78
2023/06/26 16:26:14;;;;;;;10.48;3.20;;;27.90;99.90;;;;;;10354991;28;20290;-79
2023/06/26 16:31:36;;;;;;;6.32;3.22;;;27.80;99.90;;;;;;10344349;28;20579;-78
2023/06/26 16:36:57;;;;;;;4.03;3.08;;;27.70;99.90;;;;;;10344616;28;20236;-78
2023/06/26 16:42:20;;;;;;;3.45;3.03;;;27.60;99.90;;;;;;10356905;28;20213;-78
2023/06/26 16:47:41;;;;;;;3.50;3.20;;;27.60;99.90;;;;;;10356897;28;20202;-78
2023/06/26 16:53:02;;;;;;;4.78;2.88;;;27.40;99.90;;;;;;10358467;28;20189;-78
2023/06/26 16:58:24;;;;;;;5.47;3.40;;;27.40;99.90;;;;;;10353747;28;20273;-78
2023/06/26 17:03:45;;;;;;;4.47;2.80;;;;;;;;;;10357976;28;20233;-79
2023/06/26 17:09:06;;;;;;;6.40;3.20;;;27.30;99.90;;;;;;10357871;28;20193;-78
2023/06/26 17:14:28;;;;;;;9.02;3.20;;;27.20;99.90;;;;;;10335671;28;20230;-78
2023/06/26 17:19:49;;;;;;;4.85;3.22;;;27.10;99.90;;;;;;10302632;28;20199;-78
2023/06/26 17:25:11;;;;;;;4.30;3.35;;;26.80;99.90;;;;;;10316794;28;20398;-79
2023/06/26 17:30:32;;;;;;;4.32;3.17;;;26.70;99.90;;;;;;10321741;28;20257;-78
2023/06/26 17:35:54;;;;;;;8.35;3.20;;;26.60;99.90;;;;;;10316912;28;20229;-79
2023/06/26 17:41:15;;;;;;;5.20;3.28;;;26.50;99.90;;;;;;10316754;28;20194;-78
2023/06/26 17:46:39;;;;;;;3.95;3.00;;;26.30;99.90;;;;;;10321879;28;20197;-78
2023/06/26 17:52:04;;;;;;;4.57;2.80;;;26.20;99.90;;;;;;10319328;28;20199;-77
2023/06/26 17:57:25;;;;;;;4.82;3.30;;;26.10;99.90;;;;;;10316425;28;21585;-78
2023/06/26 18:02:47;;;;;;;8.30;4.18;;;26.10;99.90;;;;;;10335147;28;20233;-77
2023/06/26 18:14:27;;;;;;;6.35;4.32;;;25.90;99.90;;;;;;10327621;28;20293;-77
2023/06/26 18:19:48;;;;;;;11.02;6.28;;;25.70;99.90;;;;;;10328183;28;20212;-76
2023/06/26 18:25:09;;;;;;;7.78;3.88;;;25.70;99.90;;;;;;10317534;28;20497;-76
2023/06/26 18:30:31;;;;;;;5.10;3.47;;;25.70;99.90;;;;;;10314707;28;20205;-76
2023/06/26 18:42:09;;;;;;;4.47;3.42;;;25.40;99.90;;;;;;10299907;28;20203;-78
2023/06/26 18:47:31;;;;;;;5.50;3.42;;;25.20;99.90;;;;;;10310955;28;20407;-77
2023/06/26 18:52:52;;;;;;;3.22;2.83;;;25.00;99.90;;;;;;10314364;28;20404;-77
2023/06/26 18:58:13;;;;;;;4.25;3.00;;;24.90;99.90;;;;;;10341859;28;20558;-77
2023/06/26 19:03:35;;;;;;;4.07;3.30;;;24.90;99.90;;;;;;10354091;28;20458;-78
2023/06/26 19:08:57;;;;;;;7.13;3.88;;;;;;;;;;10355540;28;20213;-79
2023/06/26 19:21:00;;;;;;;4.88;3.38;;;;;;;;;;10334461;28;20193;-77
2023/06/26 19:26:22;;;;;;;6.45;3.90;;;;;;;;;;10361065;28;20190;-77
2023/06/26 19:31:43;;;;;;;3.42;2.95;;;;;;;;;;10357997;28;20198;-77
2023/06/26 19:37:05;;;;;;;3.83;3.00;;;;;;;;;;10361548;28;20225;-78
2023/06/26 19:42:26;;;;;;;6.93;3.03;;;;;;;;;;10353749;28;20205;-77
2023/06/26 19:47:48;;;;;;;4.00;3.15;;;;;;;;;;10344911;28;20229;-77
2023/06/26 19:53:10;;;;;;;4.55;3.20;;;;;;;;;;10312918;28;20249;-77
2023/06/26 19:58:31;;;;;;;10.73;3.92;;;;;;;;;;10319651;28;20222;-77
2023/06/26 20:03:52;;;;;;;4.97;3.20;;;;;;;;;;10354163;28;20429;-77
2023/06/26 20:09:14;;;;;;;7.35;3.25;;;;;;;;;;10354738;28;20214;-78
2023/06/26 20:14:36;;;;;;;3.53;2.70;;;;;;;;;;10337717;28;20226;-76
2023/06/26 20:19:57;;;;;;;2.88;2.60;;;;;;;;;;10317680;28;20489;-77
2023/06/26 20:25:19;;;;;;;4.00;2.92;;;;;;;;;;10325694;28;20509;-77
2023/06/26 20:30:41;;;;;;;7.28;2.60;;;;;;;;;;10319304;28;20190;-78
2023/06/26 20:36:03;;;;;;;6.10;3.67;;;;;;;;;;10315155;28;20301;-78
2023/06/26 20:41:24;;;;;;;6.80;3.17;;;;;;;;;;10331609;28;20357;-77
2023/06/26 20:46:54;;;;;;;3.17;2.70;;;22.00;1.00;;;;;;10349462;28;20212;-77
2023/06/26 20:52:17;;;;;;;7.10;3.40;;;21.80;1.00;;;;;;10354279;28;20210;-76
2023/06/26 20:57:40;;;;;;;4.93;2.95;;;21.70;1.00;;;;;;10357439;28;20232;-77
2023/06/26 21:03:01;;;;;;;3.85;2.97;;;21.60;53.20;;;;;;10352727;28;20656;-77
2023/06/26 21:08:22;;;;;;;5.50;3.30;;;21.60;99.90;;;;;;10371125;28;20190;-78
2023/06/26 21:13:43;;;;;;;5.97;3.28;;;21.50;1.00;;;;;;10353278;28;20213;-76
2023/06/26 21:19:04;;;;;;;3.75;3.00;;;21.30;99.90;;;;;;10357958;28;20202;-77
2023/06/26 21:24:26;;;;;;;3.88;3.47;;;21.20;99.90;;;;;;10352996;28;20201;-77
2023/06/26 21:29:47;;;;;;;3.97;3.22;;;21.10;1.00;;;;;;10355641;28;20221;-77
2023/06/26 21:35:08;;;;;;;3.88;3.35;;;21.00;99.90;;;;;;10355843;28;20409;-76
2023/06/26 21:40:30;;;;;;;3.97;3.20;;;20.90;99.90;;;;;;10357328;28;20520;-77
2023/06/26 21:45:51;;;;;;;3.90;3.53;;;20.90;99.90;;;;;;10333667;28;20229;-77
2023/06/26 21:51:12;;;;;;;4.20;3.17;;;20.60;1.00;;;;;;10355396;28;20530;-77
2023/06/26 21:56:33;;;;;;;4.80;3.60;;;20.60;99.90;;;;;;10351725;28;20253;-77
2023/06/26 22:01:55;;;;;;;5.68;3.45;;;20.50;99.90;;;;;;10352305;28;20194;-77
2023/06/26 22:07:16;;;;;;;4.60;3.05;;;20.60;1.00;;;;;;10315132;28;20194;-77
2023/06/26 22:12:37;;;;;;;4.65;3.28;;;20.60;5.10;;;;;;10337375;28;20281;-77
2023/06/26 22:17:59;;;;;;;6.72;4.50;;;20.50;1.00;;;;;;10354865;28;20237;-77
2023/06/26 22:23:21;;;;;;;6.75;4.20;;;20.50;1.00;;;;;;10350801;28;20218;-77
2023/06/26 22:28:43;;;;;;;5.07;4.07;;;20.50;1.00;;;;;;10355218;28;20480;-77
2023/06/26 22:34:04;;;;;;;7.43;5.32;;;20.50;99.90;;;;;;10354030;28;20281;-77
2023/06/26 22:39:26;;;;;;;7.65;5.00;;;20.40;1.00;;;;;;10367511;28;20202;-77
2023/06/26 22:44:47;;;;;;;5.63;4.40;;;20.20;1.00;;;;;;10350235;28;20206;-77
2023/06/26 22:50:09;;;;;;;7.65;4.95;;;20.10;99.90;;;;;;10367919;28;20197;-77
2023/06/26 22:55:32;;;;;;;6.63;4.60;;;20.10;99.90;;;;;;10348840;28;20229;-78
2023/06/26 23:00:53;;;;;;;6.45;4.55;;;20.20;99.90;;;;;;10354699;28;20194;-78
2023/06/26 23:06:21;;;;;;;7.22;4.47;;;20.30;99.90;;;;;;10362191;28;20313;-77
2023/06/26 23:11:42;;;;;;;4.82;4.22;;;20.30;99.90;;;;;;10367215;28;20222;-78
2023/06/26 23:17:04;;;;;;;6.25;4.55;;;20.20;99.90;;;;;;10316925;28;20226;-79
2023/06/26 23:22:25;;;;;;;5.15;4.13;;;20.20;99.90;;;;;;10331607;28;21388;-80
2023/06/26 23:27:46;;;;;;;8.35;4.28;;;20.20;99.90;;;;;;10312607;28;20202;-78
2023/06/26 23:33:08;;;;;;;6.50;5.30;;;20.20;99.90;;;;;;10330128;28;20497;-78
2023/06/26 23:38:29;;;;;;;6.53;4.57;;;20.20;1.00;;;;;;10352725;28;20232;-77
2023/06/26 23:43:51;;;;;;;5.68;4.93;;;20.20;99.90;;;;;;10349479;28;20213;-77
2023/06/26 23:49:13;;;;;;;4.60;4.20;;;20.20;99.90;;;;;;10366716;28;20198;-78
2023/06/26 23:54:34;;;;;;;6.65;5.28;;;20.10;99.90;;;;;;10353261;28;20309;-77
2023/06/26 23:59:55;;;;;;;6.05;4.63;;;20.00;99.90;;;;;;10373803;28;20189;-77
